Forside
METAR-TAF:

METAR-TAF

Lufthavne :

Lossiemouth, Skotland

Breddekreds: 57-43N, længdekreds: 003-19W, højde: 13 m

Aktuelle vejr

Denne rapport blev lavet for 26 minutter siden, kl. 01:50 UTC
Vind 3 kt fra syd
Temperatur 10°C
Fugtighed 76%
Tryk 1029 hPa
Sigt 10 km eller mere
ingen skyer under 1500m og ingen cumulonimbus

METAR: EGQS 250150Z 18003KT CAVOK 10/06 Q1029 RMK BLU

Tid: 03:16 (02:16 UTC)

Vejrudsigter

Denne rapport blev lavet for 3 timer og 49 minutter siden, kl. 22:27 UTC
Foreløbig gælder fra 25 på 00 UTC til 25 på 18 UTC
Vind 12 kt fra sydvest
Sigt 10 km eller mere
Nogle få skyer i en højde af 2800 ft

TAF: EGQS 242227Z 2500/2518 23012KT 9999 FEW028

Vejrobservationer og prognoser fra mere end 4000 lufthavne (METAR og TAF).

De gule og røde prikker repræsenterer de meteorologiske stationer.

Flyt musen over at se navnet på stationen.

Så klik over at se vejr observationer og prognoser.

At skifte det kort: Klik på de grønne knapper med et sort kors for at zoome ind; på den grønne knap med en bindestreg for at zoome ud; eller på de grønne pile for tilstødende kort.


METAR-TAF: